createdAt,value
2022-12-19T00:01:37.194Z,29.38
2022-12-19T00:04:09.234Z,25.88
2022-12-19T00:06:37.683Z,29.95
2022-12-19T00:09:05.448Z,35.85
2022-12-19T00:11:33.090Z,30.85
2022-12-19T00:14:00.833Z,27.35
2022-12-19T00:16:29.128Z,27.52
2022-12-19T00:18:57.796Z,27.17
2022-12-19T00:21:25.977Z,33.88
2022-12-19T00:23:53.509Z,29.30
2022-12-19T00:26:22.140Z,23.80
2022-12-19T00:28:50.621Z,31.98
2022-12-19T00:31:18.408Z,29.15
2022-12-19T00:33:45.651Z,32.45
2022-12-19T00:36:13.930Z,36.35
2022-12-19T00:38:42.102Z,28.33
2022-12-19T00:41:10.504Z,29.55
2022-12-19T00:43:37.952Z,34.22
2022-12-19T00:46:05.770Z,33.15
2022-12-19T00:48:33.618Z,29.85
2022-12-19T00:51:12.615Z,29.15
2022-12-19T00:53:39.737Z,30.00
2022-12-19T00:56:08.390Z,30.98
2022-12-19T00:58:35.825Z,27.27
2022-12-19T01:01:10.230Z,29.65
2022-12-19T01:03:37.438Z,26.60
2022-12-19T01:06:04.924Z,32.05
2022-12-19T01:08:32.408Z,31.38
2022-12-19T01:10:59.655Z,31.50
2022-12-19T01:13:28.053Z,28.13
2022-12-19T01:15:55.221Z,20.33
2022-12-19T01:18:22.483Z,29.48
2022-12-19T01:20:49.643Z,35.22
2022-12-19T01:23:17.257Z,26.30
2022-12-19T01:25:45.263Z,29.35
2022-12-19T01:28:15.533Z,24.70
2022-12-19T01:30:43.270Z,28.92
2022-12-19T01:33:14.228Z,23.88
2022-12-19T01:35:42.264Z,27.80
2022-12-19T01:38:14.002Z,26.77
2022-12-19T01:40:41.317Z,25.73
2022-12-19T01:43:15.076Z,29.08
2022-12-19T01:45:45.924Z,27.58
2022-12-19T01:48:16.146Z,26.98
2022-12-19T01:50:51.977Z,32.95
2022-12-19T01:53:30.541Z,29.92
2022-12-19T01:55:57.610Z,28.20
2022-12-19T01:58:25.089Z,26.13
2022-12-19T02:00:52.469Z,25.70
2022-12-19T02:03:28.626Z,27.95
2022-12-19T02:05:56.084Z,30.80
2022-12-19T02:08:25.349Z,29.88
2022-12-19T02:10:52.543Z,26.50
2022-12-19T02:13:20.117Z,30.55
2022-12-19T02:15:47.197Z,27.30
2022-12-19T02:18:17.104Z,29.40
2022-12-19T02:20:50.371Z,30.98
2022-12-19T02:23:36.051Z,30.90
2022-12-19T02:26:28.559Z,28.38
2022-12-19T02:31:42.081Z,28.38
2022-12-19T02:34:30.367Z,32.17
2022-12-19T02:37:09.723Z,26.90
2022-12-19T02:39:40.151Z,25.70
2022-12-19T02:42:10.739Z,31.63
2022-12-19T02:47:07.346Z,26.15
2022-12-19T02:49:35.644Z,29.67
2022-12-19T02:52:11.906Z,38.17
2022-12-19T02:54:40.728Z,27.00
2022-12-19T02:57:12.215Z,35.25
2022-12-19T02:59:52.361Z,30.95
2022-12-19T03:02:24.890Z,30.70
2022-12-19T03:04:59.555Z,33.67
2022-12-19T03:07:37.907Z,31.35
2022-12-19T03:10:20.354Z,32.63
2022-12-19T03:12:51.422Z,33.25
2022-12-19T03:15:18.979Z,30.55
2022-12-19T03:17:46.117Z,35.38
2022-12-19T03:20:36.296Z,36.20
2022-12-19T03:23:03.415Z,35.78
2022-12-19T03:25:31.430Z,33.40
2022-12-19T03:28:02.258Z,35.17
2022-12-19T03:30:30.068Z,39.30
2022-12-19T03:32:57.281Z,40.70
2022-12-19T03:35:27.367Z,35.65
2022-12-19T03:37:59.394Z,40.92
2022-12-19T03:43:09.062Z,33.72
2022-12-19T03:45:42.865Z,35.00
2022-12-19T03:48:13.222Z,27.00
2022-12-19T03:50:59.062Z,42.03
2022-12-19T03:53:32.232Z,37.63
2022-12-19T03:56:04.093Z,40.65
2022-12-19T03:58:33.495Z,42.50
2022-12-19T04:01:01.780Z,31.27
2022-12-19T04:03:30.236Z,38.47
2022-12-19T04:05:58.226Z,37.70
2022-12-19T04:08:25.829Z,29.17
2022-12-19T04:10:56.129Z,37.67
2022-12-19T04:13:42.431Z,45.72
2022-12-19T04:16:13.790Z,42.60
2022-12-19T04:18:42.785Z,34.60
2022-12-19T04:21:13.637Z,37.05
2022-12-19T04:23:43.486Z,37.60
2022-12-19T04:26:11.472Z,37.47
2022-12-19T04:28:44.454Z,35.63
2022-12-19T04:31:15.909Z,37.47
2022-12-19T04:33:43.175Z,39.88
2022-12-19T04:36:11.034Z,35.10
2022-12-19T04:38:38.342Z,35.08
2022-12-19T04:41:05.451Z,36.88
2022-12-19T04:43:32.575Z,33.10
2022-12-19T04:45:59.834Z,40.50
2022-12-19T04:48:29.719Z,37.20
2022-12-19T04:50:57.143Z,37.15
2022-12-19T04:53:24.368Z,35.00
2022-12-19T04:55:51.564Z,34.97
2022-12-19T04:58:21.916Z,37.08
2022-12-19T05:00:49.650Z,37.00
2022-12-19T05:03:16.784Z,35.35
2022-12-19T05:05:44.033Z,33.80
2022-12-19T05:08:11.403Z,34.95
2022-12-19T05:10:39.141Z,38.55
2022-12-19T05:13:06.789Z,37.72
2022-12-19T05:15:34.108Z,32.70
2022-12-19T05:18:01.215Z,30.02
2022-12-19T05:20:28.614Z,36.22
2022-12-19T05:22:55.762Z,32.70
2022-12-19T05:25:22.906Z,33.30
2022-12-19T05:27:50.048Z,35.88
2022-12-19T05:30:17.229Z,34.28
2022-12-19T05:32:44.454Z,31.38
2022-12-19T05:35:11.540Z,26.80
2022-12-19T05:37:38.668Z,31.45
2022-12-19T05:40:06.046Z,34.08
2022-12-19T05:42:33.182Z,34.67
2022-12-19T05:45:00.277Z,29.15
2022-12-19T05:47:27.386Z,23.30
2022-12-19T05:49:54.494Z,21.75
2022-12-19T05:52:21.593Z,26.38
2022-12-19T05:54:48.895Z,27.30
2022-12-19T05:57:16.276Z,27.58
2022-12-19T05:59:43.382Z,28.60
2022-12-19T06:02:10.635Z,31.15
2022-12-19T06:04:37.863Z,30.67
2022-12-19T06:07:05.506Z,26.65
2022-12-19T06:09:32.643Z,25.63
2022-12-19T06:11:59.737Z,24.92
2022-12-19T06:14:26.926Z,30.50
2022-12-19T06:16:54.156Z,26.80
2022-12-19T06:19:21.641Z,26.42
2022-12-19T06:21:49.007Z,23.25
2022-12-19T06:24:16.281Z,24.10
2022-12-19T06:26:43.586Z,22.13
2022-12-19T06:29:10.694Z,25.35
2022-12-19T06:31:37.942Z,23.77
2022-12-19T06:34:05.407Z,27.75
2022-12-19T06:36:32.547Z,25.65
2022-12-19T06:38:59.828Z,26.42
2022-12-19T06:41:46.529Z,23.75
2022-12-19T06:44:14.990Z,22.35
2022-12-19T06:46:42.363Z,29.65
2022-12-19T06:49:10.594Z,24.20
2022-12-19T06:51:37.942Z,26.40
2022-12-19T06:54:05.101Z,25.25
2022-12-19T06:56:36.258Z,21.75
2022-12-19T06:59:03.657Z,22.87
2022-12-19T07:01:34.124Z,20.85
2022-12-19T07:04:01.358Z,21.40
2022-12-19T07:06:29.013Z,22.10
2022-12-19T07:08:56.162Z,19.25
2022-12-19T07:11:23.353Z,23.20
2022-12-19T07:13:50.418Z,21.23
2022-12-19T07:16:17.534Z,25.60
2022-12-19T07:18:44.819Z,20.95
2022-12-19T07:21:12.128Z,20.55
2022-12-19T07:23:39.588Z,18.92
2022-12-19T07:26:06.810Z,23.15
2022-12-19T07:28:35.213Z,19.55
2022-12-19T07:31:02.498Z,17.83
2022-12-19T07:33:29.674Z,21.73
2022-12-19T07:35:56.856Z,21.80
2022-12-19T07:38:24.096Z,23.48
2022-12-19T07:40:51.203Z,18.02
2022-12-19T07:43:18.316Z,19.75
2022-12-19T07:45:45.556Z,18.15
2022-12-19T07:48:12.775Z,21.08
2022-12-19T07:50:40.031Z,19.52
2022-12-19T07:53:07.149Z,17.23
2022-12-19T07:55:34.658Z,17.85
2022-12-19T07:58:01.791Z,19.02
2022-12-19T08:00:28.861Z,17.42
2022-12-19T08:02:56.088Z,17.90
2022-12-19T08:05:23.346Z,21.08
2022-12-19T08:07:50.635Z,18.38
2022-12-19T08:10:19.323Z,17.25
2022-12-19T08:12:46.553Z,10.73
2022-12-19T08:15:13.681Z,17.25
2022-12-19T08:17:40.870Z,20.00
2022-12-19T08:20:08.775Z,15.73
2022-12-19T08:22:35.968Z,19.85
2022-12-19T08:25:03.164Z,17.80
2022-12-19T08:27:30.428Z,18.35
2022-12-19T08:29:57.611Z,18.25
2022-12-19T08:32:24.742Z,18.63
2022-12-19T08:34:51.921Z,19.23
2022-12-19T08:37:19.071Z,18.17
2022-12-19T08:39:46.212Z,16.50
2022-12-19T08:42:13.275Z,15.40
2022-12-19T08:44:40.530Z,18.27
2022-12-19T08:47:07.709Z,19.13
2022-12-19T08:49:34.814Z,23.77
2022-12-19T08:52:02.047Z,19.92
2022-12-19T08:54:29.225Z,18.85
2022-12-19T08:56:56.404Z,18.17
2022-12-19T08:59:31.254Z,22.25
2022-12-19T09:02:00.145Z,20.27
2022-12-19T09:05:16.089Z,18.60
2022-12-19T09:07:15.604Z,21.65
2022-12-19T09:09:43.221Z,20.00
2022-12-19T09:12:10.493Z,19.63
2022-12-19T09:14:37.687Z,17.65
2022-12-19T09:17:05.048Z,19.70
2022-12-19T09:19:32.733Z,17.35
2022-12-19T09:21:59.996Z,17.45
2022-12-19T09:24:27.136Z,23.23
2022-12-19T09:26:54.307Z,18.88
2022-12-19T09:29:22.159Z,18.70
2022-12-19T09:31:51.579Z,18.77
2022-12-19T09:34:23.454Z,18.80
2022-12-19T09:36:51.910Z,23.30
2022-12-19T09:39:19.089Z,16.75
2022-12-19T09:41:46.233Z,22.02
2022-12-19T09:44:16.529Z,18.58
2022-12-19T09:46:53.637Z,18.40
2022-12-19T09:49:23.352Z,15.65
2022-12-19T09:51:59.508Z,17.05
2022-12-19T09:54:33.199Z,15.48
2022-12-19T09:57:02.034Z,14.93
2022-12-19T09:59:41.253Z,17.48
2022-12-19T10:02:30.612Z,19.63
2022-12-19T10:05:48.473Z,16.25
2022-12-19T10:08:17.601Z,15.60
2022-12-19T10:12:38.174Z,17.88
2022-12-19T10:13:52.859Z,16.67
2022-12-19T10:16:26.586Z,15.77
2022-12-19T10:18:58.124Z,13.82
2022-12-19T10:21:58.832Z,16.00
2022-12-19T10:24:30.154Z,15.15
2022-12-19T10:27:01.737Z,15.50
2022-12-19T10:29:28.877Z,13.43
2022-12-19T10:32:14.302Z,14.48
2022-12-19T10:34:43.307Z,14.85
2022-12-19T10:37:35.225Z,11.57
2022-12-19T10:40:15.619Z,13.27
2022-12-19T10:43:16.350Z,14.10
2022-12-19T10:45:52.651Z,13.98
2022-12-19T10:48:21.317Z,19.02
2022-12-19T10:50:58.313Z,12.75
2022-12-19T10:53:32.149Z,12.90
2022-12-19T10:56:03.540Z,14.55
2022-12-19T10:58:35.324Z,10.23
2022-12-19T11:01:35.550Z,12.23
2022-12-19T11:04:14.877Z,12.18
2022-12-19T11:06:47.370Z,12.10
2022-12-19T11:09:18.363Z,10.90
2022-12-19T11:16:58.319Z,11.63
2022-12-19T11:17:55.009Z,12.90
2022-12-19T11:24:23.743Z,12.40
2022-12-19T11:29:30.548Z,12.15
2022-12-19T11:29:33.481Z,14.20
2022-12-19T11:29:34.226Z,13.30
2022-12-19T11:29:39.635Z,13.45
2022-12-19T11:34:25.464Z,10.77
2022-12-19T11:37:01.622Z,11.15
2022-12-19T11:39:44.935Z,14.27
2022-12-19T11:42:15.786Z,10.02
2022-12-19T11:44:49.199Z,11.45
2022-12-19T11:47:32.464Z,10.95
2022-12-19T11:50:02.311Z,14.60
2022-12-19T11:55:44.421Z,11.27
2022-12-19T11:58:11.988Z,11.65
2022-12-19T12:00:50.340Z,13.50
2022-12-19T12:03:20.594Z,11.38
2022-12-19T12:05:52.322Z,14.00
2022-12-19T12:11:03.707Z,14.00
2022-12-19T12:18:53.006Z,9.38
2022-12-19T12:22:53.459Z,14.23
2022-12-19T12:26:21.429Z,12.25
2022-12-19T12:31:21.921Z,11.85
2022-12-19T12:31:31.254Z,10.88
2022-12-19T12:31:44.728Z,11.57
2022-12-19T12:32:04.211Z,16.58
2022-12-19T12:35:28.680Z,11.60
2022-12-19T12:40:42.814Z,12.30
2022-12-19T12:43:18.805Z,11.55
2022-12-19T12:45:47.252Z,13.82
2022-12-19T12:48:18.120Z,12.73
2022-12-19T12:50:53.241Z,12.15
2022-12-19T12:53:24.856Z,13.77
2022-12-19T12:55:52.846Z,12.27
2022-12-19T12:58:58.342Z,10.80
2022-12-19T13:01:39.132Z,9.60
2022-12-19T13:04:16.814Z,16.60
2022-12-19T13:07:02.812Z,13.23
2022-12-19T13:09:31.193Z,10.02
2022-12-19T13:12:22.341Z,10.73
2022-12-19T13:14:50.461Z,11.15
2022-12-19T13:17:25.517Z,13.32
2022-12-19T13:19:54.659Z,11.45
2022-12-19T13:22:23.401Z,11.85
2022-12-19T13:24:54.807Z,11.13
2022-12-19T13:27:22.542Z,11.05
2022-12-19T13:30:03.764Z,9.35
2022-12-19T13:32:53.984Z,9.83
2022-12-19T13:36:41.203Z,13.80
2022-12-19T13:39:55.327Z,8.52
2022-12-19T13:41:25.154Z,9.27
2022-12-19T13:43:56.383Z,7.72
2022-12-19T13:46:23.574Z,8.57
2022-12-19T13:48:52.994Z,8.02
2022-12-19T13:51:20.215Z,9.00
2022-12-19T13:53:47.481Z,11.32
2022-12-19T13:56:16.351Z,9.88
2022-12-19T13:58:58.212Z,10.85
2022-12-19T14:01:29.633Z,11.45
2022-12-19T14:03:58.889Z,8.38
2022-12-19T14:06:42.897Z,8.88
2022-12-19T14:11:29.108Z,12.13
2022-12-19T14:13:52.412Z,8.77
2022-12-19T14:17:49.704Z,9.30
2022-12-19T14:22:01.498Z,9.70
2022-12-19T14:23:36.914Z,9.80
2022-12-19T14:28:17.243Z,7.18
2022-12-19T14:29:03.445Z,9.00
2022-12-19T14:31:33.033Z,7.55
2022-12-19T14:36:48.760Z,11.30
2022-12-19T14:39:27.112Z,7.25
2022-12-19T14:42:20.586Z,7.22
2022-12-19T14:52:25.481Z,9.15
2022-12-19T14:53:51.782Z,7.93
2022-12-19T14:54:37.067Z,8.10
2022-12-19T14:54:47.717Z,11.98
2022-12-19T14:59:00.949Z,7.53
2022-12-19T15:01:29.894Z,9.75
2022-12-19T15:04:52.200Z,6.28
2022-12-19T15:07:08.848Z,10.65
2022-12-19T15:11:03.004Z,10.40
2022-12-19T15:14:04.174Z,10.30
2022-12-19T15:15:41.137Z,9.13
2022-12-19T15:18:23.463Z,9.05
2022-12-19T15:23:22.363Z,8.77
2022-12-19T15:26:07.118Z,10.93
2022-12-19T15:28:42.255Z,8.23
2022-12-19T15:31:33.036Z,9.40
2022-12-19T15:34:32.814Z,8.48
2022-12-19T15:36:47.467Z,8.77
2022-12-19T15:39:17.457Z,7.10
2022-12-19T15:41:45.816Z,8.45
2022-12-19T15:44:17.556Z,10.23
2022-12-19T15:46:48.982Z,9.77
2022-12-19T15:51:43.941Z,7.60
2022-12-19T15:56:58.231Z,10.57
2022-12-19T15:59:34.747Z,8.65
2022-12-19T16:02:04.527Z,9.60
2022-12-19T16:04:31.822Z,9.65
2022-12-19T16:06:59.237Z,7.15
2022-12-19T16:09:30.226Z,8.82
2022-12-19T16:11:58.190Z,9.23
2022-12-19T16:14:25.873Z,9.15
2022-12-19T16:16:53.855Z,9.10
2022-12-19T16:19:25.040Z,10.50
2022-12-19T16:21:52.326Z,12.13
2022-12-19T16:24:19.887Z,8.50
2022-12-19T16:26:52.432Z,9.70
2022-12-19T16:29:21.256Z,10.63
2022-12-19T16:31:48.500Z,11.43
2022-12-19T16:34:17.081Z,10.65
2022-12-19T16:36:44.839Z,8.55
2022-12-19T16:39:12.001Z,8.48
2022-12-19T16:41:41.720Z,10.93
2022-12-19T16:44:20.875Z,12.45
2022-12-19T16:46:50.960Z,12.23
2022-12-19T16:49:25.286Z,11.70
2022-12-19T16:51:52.547Z,11.60
2022-12-19T16:54:20.112Z,12.52
2022-12-19T16:56:49.234Z,14.52
2022-12-19T16:59:20.190Z,12.43
2022-12-19T17:01:47.669Z,13.15
2022-12-19T17:04:15.993Z,14.68
2022-12-19T17:06:43.276Z,16.23
2022-12-19T17:09:14.306Z,11.25
2022-12-19T17:11:41.627Z,14.07
2022-12-19T17:14:12.930Z,11.40
2022-12-19T17:16:40.115Z,13.52
2022-12-19T17:19:07.341Z,13.95
2022-12-19T17:21:34.487Z,12.23
2022-12-19T17:24:01.661Z,22.30
2022-12-19T17:26:28.908Z,13.98
2022-12-19T17:28:56.037Z,13.93
2022-12-19T17:31:23.229Z,14.55
2022-12-19T17:33:50.871Z,12.40
2022-12-19T17:36:21.345Z,16.55
2022-12-19T17:38:52.105Z,14.48
2022-12-19T17:41:19.242Z,11.43
2022-12-19T17:43:46.282Z,11.95
2022-12-19T17:46:17.662Z,10.90
2022-12-19T17:48:45.366Z,14.52
2022-12-19T17:51:13.730Z,11.57
2022-12-19T17:53:40.857Z,11.82
2022-12-19T17:56:11.063Z,10.88
2022-12-19T17:58:38.450Z,11.60
2022-12-19T18:01:05.572Z,9.10
2022-12-19T18:03:32.849Z,10.40
2022-12-19T18:06:00.080Z,10.07
2022-12-19T18:08:33.479Z,10.27
2022-12-19T18:11:01.502Z,9.05
2022-12-19T18:13:30.047Z,10.40
2022-12-19T18:15:58.634Z,8.75
2022-12-19T18:18:30.330Z,8.43
2022-12-19T18:20:58.249Z,8.95
2022-12-19T18:23:25.407Z,11.90
2022-12-19T18:25:57.599Z,9.27
2022-12-19T18:28:28.300Z,9.43
2022-12-19T18:30:57.212Z,10.40
2022-12-19T18:33:24.756Z,8.35
2022-12-19T18:35:52.131Z,8.93
2022-12-19T18:38:20.508Z,8.38
2022-12-19T18:40:48.687Z,9.82
2022-12-19T18:43:17.224Z,9.02
2022-12-19T18:45:47.268Z,8.00
2022-12-19T18:48:18.301Z,9.50
2022-12-19T18:50:45.393Z,10.48
2022-12-19T18:53:14.767Z,9.05
2022-12-19T18:55:42.009Z,8.77
2022-12-19T18:58:09.127Z,7.35
2022-12-19T19:00:38.446Z,8.55
2022-12-19T19:03:07.244Z,8.13
2022-12-19T19:05:35.612Z,9.98
2022-12-19T19:08:12.068Z,11.77
2022-12-19T19:10:42.238Z,10.55
2022-12-19T19:13:10.577Z,17.65
2022-12-19T19:15:41.011Z,10.43
2022-12-19T19:18:08.573Z,12.27
2022-12-19T19:20:40.023Z,9.40
2022-12-19T19:23:09.807Z,8.13
2022-12-19T19:25:37.268Z,9.98
2022-12-19T19:28:06.248Z,8.70
2022-12-19T19:30:35.289Z,10.40
2022-12-19T19:33:07.373Z,9.45
2022-12-19T19:38:02.466Z,10.80
2022-12-19T19:40:29.581Z,8.18
2022-12-19T19:42:56.612Z,11.38
2022-12-19T19:45:23.777Z,8.80
2022-12-19T19:47:50.943Z,8.43
2022-12-19T19:50:18.310Z,6.70
2022-12-19T19:52:45.501Z,7.85
2022-12-19T19:55:14.761Z,8.73
2022-12-19T19:57:41.921Z,8.20
2022-12-19T20:00:09.541Z,8.13
2022-12-19T20:02:37.035Z,10.52
2022-12-19T20:05:04.525Z,6.82
2022-12-19T20:07:31.772Z,9.32
2022-12-19T20:09:58.915Z,7.40
2022-12-19T20:12:26.073Z,7.45
2022-12-19T20:14:53.217Z,6.30
2022-12-19T20:17:20.484Z,7.57
2022-12-19T20:19:47.623Z,7.15
2022-12-19T20:22:14.817Z,8.40
2022-12-19T20:24:41.963Z,6.90
2022-12-19T20:27:09.116Z,6.35
2022-12-19T20:29:36.587Z,9.52
2022-12-19T20:32:05.158Z,6.15
2022-12-19T20:34:33.049Z,7.88
2022-12-19T20:37:00.173Z,6.55
2022-12-19T20:39:27.484Z,6.28
2022-12-19T20:41:54.731Z,6.13
2022-12-19T20:44:24.430Z,8.95
2022-12-19T20:46:52.521Z,6.93
2022-12-19T20:49:19.731Z,6.00
2022-12-19T20:51:47.709Z,6.43
2022-12-19T20:54:15.766Z,6.28
2022-12-19T20:56:43.235Z,7.30
2022-12-19T20:59:10.513Z,5.65
2022-12-19T21:01:38.302Z,5.40
2022-12-19T21:04:05.781Z,6.10
2022-12-19T21:06:33.236Z,5.93
2022-12-19T21:09:00.405Z,5.78
2022-12-19T21:11:27.639Z,6.88
2022-12-19T21:13:54.925Z,5.47
2022-12-19T21:16:23.244Z,6.60
2022-12-19T21:18:51.177Z,5.32
2022-12-19T21:21:20.110Z,4.60
2022-12-19T21:23:47.528Z,6.53
2022-12-19T21:26:14.887Z,6.43
2022-12-19T21:28:42.145Z,4.65
2022-12-19T21:31:17.322Z,5.53
2022-12-19T21:33:45.534Z,6.93
2022-12-19T21:36:15.249Z,7.47
2022-12-19T21:38:42.524Z,6.32
2022-12-19T21:41:09.749Z,4.47
2022-12-19T21:43:37.631Z,5.15
2022-12-19T21:46:05.783Z,6.82
2022-12-19T21:48:36.123Z,5.22
2022-12-19T21:51:03.508Z,4.60
2022-12-19T21:53:30.633Z,6.20
2022-12-19T21:56:27.245Z,5.93
2022-12-19T21:59:01.945Z,5.75
2022-12-19T22:01:29.802Z,10.20
2022-12-19T22:04:01.070Z,6.00
2022-12-19T22:06:30.312Z,5.07
2022-12-19T22:08:57.560Z,5.95
2022-12-19T22:11:25.514Z,6.03
2022-12-19T22:13:53.079Z,6.35
2022-12-19T22:16:20.380Z,5.43
2022-12-19T22:18:47.897Z,6.30
2022-12-19T22:21:15.882Z,5.32
2022-12-19T22:23:42.935Z,7.55
2022-12-19T22:26:12.869Z,4.40
2022-12-19T22:28:41.576Z,7.18
2022-12-19T22:31:35.125Z,7.03
2022-12-19T22:34:04.180Z,6.35
2022-12-19T22:36:32.404Z,7.78
2022-12-19T22:39:00.720Z,7.00
2022-12-19T22:41:28.306Z,6.65
2022-12-19T22:43:55.991Z,4.43
2022-12-19T22:46:26.282Z,5.55
2022-12-19T22:48:53.753Z,5.15
2022-12-19T22:51:21.011Z,4.45
2022-12-19T22:53:48.710Z,5.78
2022-12-19T22:56:17.871Z,4.13
2022-12-19T22:58:46.293Z,3.95
2022-12-19T23:01:13.788Z,4.30
2022-12-19T23:03:41.314Z,6.35
2022-12-19T23:06:08.569Z,5.18
2022-12-19T23:08:36.072Z,4.72
2022-12-19T23:11:06.197Z,5.68
2022-12-19T23:13:33.370Z,5.18
2022-12-19T23:16:00.496Z,5.35
2022-12-19T23:18:27.739Z,4.95
2022-12-19T23:21:09.253Z,4.90
2022-12-19T23:23:42.021Z,9.73
2022-12-19T23:26:15.600Z,3.47
2022-12-19T23:28:43.802Z,4.80
2022-12-19T23:31:12.165Z,4.40
2022-12-19T23:33:39.339Z,5.22
2022-12-19T23:36:06.667Z,5.95
2022-12-19T23:38:34.255Z,6.53
2022-12-19T23:41:06.200Z,5.25
2022-12-19T23:43:34.405Z,4.32
2022-12-19T23:46:05.495Z,3.78
2022-12-19T23:48:32.702Z,5.55
2022-12-19T23:51:00.897Z,5.93
2022-12-19T23:53:28.041Z,5.28
2022-12-19T23:55:55.300Z,3.88
2022-12-19T23:58:24.632Z,5.68
